sensor_id;sensor_type;location;lat;lon;timestamp;P1;durP1;ratioP1;P2;durP2;ratioP2
51852;SDS011;37894;53.172;6.598;2024-03-17T00:00:32;12.32;;;3.60;;
51852;SDS011;37894;53.172;6.598;2024-03-17T00:02:57;8.80;;;3.50;;
51852;SDS011;37894;53.172;6.598;2024-03-17T00:05:23;13.00;;;4.15;;
51852;SDS011;37894;53.172;6.598;2024-03-17T00:07:49;15.10;;;3.92;;
51852;SDS011;37894;53.172;6.598;2024-03-17T00:10:14;11.18;;;4.03;;
51852;SDS011;37894;53.172;6.598;2024-03-17T00:12:40;17.50;;;4.40;;
51852;SDS011;37894;53.172;6.598;2024-03-17T00:15:06;15.70;;;4.65;;
51852;SDS011;37894;53.172;6.598;2024-03-17T00:17:33;10.30;;;3.75;;
51852;SDS011;37894;53.172;6.598;2024-03-17T00:20:02;13.20;;;4.10;;
51852;SDS011;37894;53.172;6.598;2024-03-17T00:22:34;9.60;;;4.25;;
51852;SDS011;37894;53.172;6.598;2024-03-17T00:25:04;9.63;;;3.95;;
51852;SDS011;37894;53.172;6.598;2024-03-17T00:27:31;11.70;;;4.38;;
51852;SDS011;37894;53.172;6.598;2024-03-17T00:29:58;9.02;;;4.05;;
51852;SDS011;37894;53.172;6.598;2024-03-17T00:32:23;10.77;;;4.45;;
51852;SDS011;37894;53.172;6.598;2024-03-17T00:34:49;10.85;;;4.30;;
51852;SDS011;37894;53.172;6.598;2024-03-17T00:37:14;13.10;;;4.53;;
51852;SDS011;37894;53.172;6.598;2024-03-17T00:39:40;11.50;;;4.75;;
51852;SDS011;37894;53.172;6.598;2024-03-17T00:42:06;11.30;;;4.28;;
51852;SDS011;37894;53.172;6.598;2024-03-17T00:44:31;10.60;;;3.95;;
51852;SDS011;37894;53.172;6.598;2024-03-17T00:46:57;15.60;;;4.00;;
51852;SDS011;37894;53.172;6.598;2024-03-17T00:49:23;14.85;;;3.95;;
51852;SDS011;37894;53.172;6.598;2024-03-17T00:51:49;9.25;;;3.70;;
51852;SDS011;37894;53.172;6.598;2024-03-17T00:54:15;9.70;;;3.47;;
51852;SDS011;37894;53.172;6.598;2024-03-17T00:56:43;15.75;;;3.58;;
51852;SDS011;37894;53.172;6.598;2024-03-17T00:59:09;9.80;;;3.53;;
51852;SDS011;37894;53.172;6.598;2024-03-17T01:01:35;9.50;;;3.85;;
51852;SDS011;37894;53.172;6.598;2024-03-17T01:04:01;13.35;;;4.13;;
51852;SDS011;37894;53.172;6.598;2024-03-17T01:06:26;13.27;;;3.55;;
51852;SDS011;37894;53.172;6.598;2024-03-17T01:08:52;8.32;;;3.20;;
51852;SDS011;37894;53.172;6.598;2024-03-17T01:11:18;8.95;;;3.00;;
51852;SDS011;37894;53.172;6.598;2024-03-17T01:13:44;7.35;;;3.35;;
51852;SDS011;37894;53.172;6.598;2024-03-17T01:16:11;10.45;;;3.03;;
51852;SDS011;37894;53.172;6.598;2024-03-17T01:18:37;13.27;;;3.25;;
51852;SDS011;37894;53.172;6.598;2024-03-17T01:21:04;6.65;;;3.35;;
51852;SDS011;37894;53.172;6.598;2024-03-17T01:23:31;9.18;;;3.40;;
51852;SDS011;37894;53.172;6.598;2024-03-17T01:25:57;12.93;;;3.70;;
51852;SDS011;37894;53.172;6.598;2024-03-17T01:28:23;12.75;;;4.05;;
51852;SDS011;37894;53.172;6.598;2024-03-17T01:30:49;16.60;;;4.13;;
51852;SDS011;37894;53.172;6.598;2024-03-17T01:33:15;10.35;;;3.03;;
51852;SDS011;37894;53.172;6.598;2024-03-17T01:35:42;7.38;;;3.25;;
51852;SDS011;37894;53.172;6.598;2024-03-17T01:38:08;10.05;;;3.20;;
51852;SDS011;37894;53.172;6.598;2024-03-17T01:40:37;10.93;;;3.92;;
51852;SDS011;37894;53.172;6.598;2024-03-17T01:43:03;11.73;;;4.53;;
51852;SDS011;37894;53.172;6.598;2024-03-17T01:45:30;8.02;;;2.90;;
51852;SDS011;37894;53.172;6.598;2024-03-17T01:48:00;9.48;;;3.75;;
51852;SDS011;37894;53.172;6.598;2024-03-17T01:50:36;9.02;;;3.20;;
51852;SDS011;37894;53.172;6.598;2024-03-17T01:53:03;8.55;;;3.03;;
51852;SDS011;37894;53.172;6.598;2024-03-17T01:55:34;7.97;;;3.38;;
51852;SDS011;37894;53.172;6.598;2024-03-17T01:58:03;6.75;;;3.20;;
51852;SDS011;37894;53.172;6.598;2024-03-17T02:00:32;9.23;;;3.30;;
51852;SDS011;37894;53.172;6.598;2024-03-17T02:02:59;7.82;;;3.15;;
51852;SDS011;37894;53.172;6.598;2024-03-17T02:05:26;6.97;;;3.00;;
51852;SDS011;37894;53.172;6.598;2024-03-17T02:07:52;10.80;;;3.80;;
51852;SDS011;37894;53.172;6.598;2024-03-17T02:10:17;8.60;;;3.25;;
51852;SDS011;37894;53.172;6.598;2024-03-17T02:12:43;9.23;;;3.08;;
51852;SDS011;37894;53.172;6.598;2024-03-17T02:15:09;8.10;;;3.20;;
51852;SDS011;37894;53.172;6.598;2024-03-17T02:17:35;6.03;;;3.15;;
51852;SDS011;37894;53.172;6.598;2024-03-17T02:20:00;11.93;;;4.10;;
51852;SDS011;37894;53.172;6.598;2024-03-17T02:22:26;9.50;;;3.75;;
51852;SDS011;37894;53.172;6.598;2024-03-17T02:24:53;12.55;;;3.83;;
51852;SDS011;37894;53.172;6.598;2024-03-17T02:27:19;8.65;;;3.55;;
51852;SDS011;37894;53.172;6.598;2024-03-17T02:29:45;9.73;;;3.35;;
51852;SDS011;37894;53.172;6.598;2024-03-17T02:32:10;9.43;;;4.18;;
51852;SDS011;37894;53.172;6.598;2024-03-17T02:34:37;8.32;;;2.92;;
51852;SDS011;37894;53.172;6.598;2024-03-17T02:37:06;8.07;;;3.25;;
51852;SDS011;37894;53.172;6.598;2024-03-17T02:39:36;8.82;;;3.50;;
51852;SDS011;37894;53.172;6.598;2024-03-17T02:42:07;7.07;;;2.95;;
51852;SDS011;37894;53.172;6.598;2024-03-17T02:44:34;7.28;;;3.45;;
51852;SDS011;37894;53.172;6.598;2024-03-17T02:47:02;11.45;;;3.20;;
51852;SDS011;37894;53.172;6.598;2024-03-17T02:49:34;8.23;;;2.88;;
51852;SDS011;37894;53.172;6.598;2024-03-17T02:52:04;8.23;;;3.10;;
51852;SDS011;37894;53.172;6.598;2024-03-17T02:54:34;9.02;;;3.20;;
51852;SDS011;37894;53.172;6.598;2024-03-17T02:57:01;8.98;;;3.40;;
51852;SDS011;37894;53.172;6.598;2024-03-17T02:59:27;9.88;;;3.75;;
51852;SDS011;37894;53.172;6.598;2024-03-17T03:01:52;10.57;;;3.40;;
51852;SDS011;37894;53.172;6.598;2024-03-17T03:04:19;12.38;;;3.45;;
51852;SDS011;37894;53.172;6.598;2024-03-17T03:06:45;9.13;;;3.85;;
51852;SDS011;37894;53.172;6.598;2024-03-17T03:09:11;8.20;;;3.22;;
51852;SDS011;37894;53.172;6.598;2024-03-17T03:11:42;9.98;;;3.47;;
51852;SDS011;37894;53.172;6.598;2024-03-17T03:14:07;9.63;;;3.47;;
51852;SDS011;37894;53.172;6.598;2024-03-17T03:16:33;8.77;;;4.07;;
51852;SDS011;37894;53.172;6.598;2024-03-17T03:18:59;10.18;;;3.90;;
51852;SDS011;37894;53.172;6.598;2024-03-17T03:21:25;5.82;;;2.92;;
51852;SDS011;37894;53.172;6.598;2024-03-17T03:23:51;8.10;;;3.63;;
51852;SDS011;37894;53.172;6.598;2024-03-17T03:26:17;12.20;;;3.83;;
51852;SDS011;37894;53.172;6.598;2024-03-17T03:28:43;8.85;;;4.38;;
51852;SDS011;37894;53.172;6.598;2024-03-17T03:31:12;9.70;;;4.32;;
51852;SDS011;37894;53.172;6.598;2024-03-17T03:33:41;6.95;;;2.95;;
51852;SDS011;37894;53.172;6.598;2024-03-17T03:36:08;7.43;;;3.63;;
51852;SDS011;37894;53.172;6.598;2024-03-17T03:38:35;9.48;;;3.35;;
51852;SDS011;37894;53.172;6.598;2024-03-17T03:41:10;7.38;;;3.55;;
51852;SDS011;37894;53.172;6.598;2024-03-17T03:43:40;7.93;;;3.45;;
51852;SDS011;37894;53.172;6.598;2024-03-17T03:46:07;9.43;;;3.22;;
51852;SDS011;37894;53.172;6.598;2024-03-17T03:48:33;10.25;;;3.50;;
51852;SDS011;37894;53.172;6.598;2024-03-17T03:51:03;8.45;;;3.28;;
51852;SDS011;37894;53.172;6.598;2024-03-17T03:53:30;7.45;;;3.28;;
51852;SDS011;37894;53.172;6.598;2024-03-17T03:55:57;6.85;;;3.35;;
51852;SDS011;37894;53.172;6.598;2024-03-17T03:58:24;11.75;;;3.55;;
51852;SDS011;37894;53.172;6.598;2024-03-17T04:00:50;9.10;;;3.20;;
51852;SDS011;37894;53.172;6.598;2024-03-17T04:03:15;6.40;;;3.00;;
51852;SDS011;37894;53.172;6.598;2024-03-17T04:05:41;9.50;;;3.03;;
51852;SDS011;37894;53.172;6.598;2024-03-17T04:08:07;11.05;;;3.58;;
51852;SDS011;37894;53.172;6.598;2024-03-17T04:10:33;7.45;;;2.85;;
51852;SDS011;37894;53.172;6.598;2024-03-17T04:13:00;6.95;;;3.35;;
51852;SDS011;37894;53.172;6.598;2024-03-17T04:15:26;7.57;;;3.13;;
51852;SDS011;37894;53.172;6.598;2024-03-17T04:17:51;8.20;;;3.40;;
51852;SDS011;37894;53.172;6.598;2024-03-17T04:20:17;8.07;;;2.60;;
51852;SDS011;37894;53.172;6.598;2024-03-17T04:22:43;7.90;;;2.58;;
51852;SDS011;37894;53.172;6.598;2024-03-17T04:25:09;8.68;;;2.60;;
51852;SDS011;37894;53.172;6.598;2024-03-17T04:27:35;9.75;;;2.92;;
51852;SDS011;37894;53.172;6.598;2024-03-17T04:30:01;13.70;;;3.08;;
51852;SDS011;37894;53.172;6.598;2024-03-17T04:32:31;8.95;;;3.03;;
51852;SDS011;37894;53.172;6.598;2024-03-17T04:34:57;10.02;;;2.80;;
51852;SDS011;37894;53.172;6.598;2024-03-17T04:37:22;9.02;;;2.80;;
51852;SDS011;37894;53.172;6.598;2024-03-17T04:39:49;8.85;;;3.25;;
51852;SDS011;37894;53.172;6.598;2024-03-17T04:42:16;10.02;;;3.45;;
51852;SDS011;37894;53.172;6.598;2024-03-17T04:44:43;9.93;;;3.10;;
51852;SDS011;37894;53.172;6.598;2024-03-17T04:47:10;5.03;;;2.58;;
51852;SDS011;37894;53.172;6.598;2024-03-17T04:49:42;9.00;;;3.67;;
51852;SDS011;37894;53.172;6.598;2024-03-17T04:52:09;5.50;;;2.75;;
51852;SDS011;37894;53.172;6.598;2024-03-17T04:54:36;8.68;;;2.70;;
51852;SDS011;37894;53.172;6.598;2024-03-17T04:57:02;7.93;;;2.45;;
51852;SDS011;37894;53.172;6.598;2024-03-17T04:59:28;7.97;;;2.58;;
51852;SDS011;37894;53.172;6.598;2024-03-17T05:01:54;4.82;;;2.25;;
51852;SDS011;37894;53.172;6.598;2024-03-17T05:04:20;8.52;;;2.88;;
51852;SDS011;37894;53.172;6.598;2024-03-17T05:06:45;5.53;;;2.45;;
51852;SDS011;37894;53.172;6.598;2024-03-17T05:09:15;8.35;;;2.47;;
51852;SDS011;37894;53.172;6.598;2024-03-17T05:11:41;7.43;;;2.60;;
51852;SDS011;37894;53.172;6.598;2024-03-17T05:14:06;6.35;;;2.22;;
51852;SDS011;37894;53.172;6.598;2024-03-17T05:16:33;9.98;;;2.95;;
51852;SDS011;37894;53.172;6.598;2024-03-17T05:18:58;10.68;;;2.78;;
51852;SDS011;37894;53.172;6.598;2024-03-17T05:21:25;6.65;;;2.72;;
51852;SDS011;37894;53.172;6.598;2024-03-17T05:23:51;7.70;;;2.53;;
51852;SDS011;37894;53.172;6.598;2024-03-17T05:26:17;7.25;;;2.95;;
51852;SDS011;37894;53.172;6.598;2024-03-17T05:28:43;8.27;;;3.00;;
51852;SDS011;37894;53.172;6.598;2024-03-17T05:31:09;7.07;;;2.72;;
51852;SDS011;37894;53.172;6.598;2024-03-17T05:33:35;5.68;;;2.90;;
51852;SDS011;37894;53.172;6.598;2024-03-17T05:36:01;8.23;;;3.28;;
51852;SDS011;37894;53.172;6.598;2024-03-17T05:38:28;9.13;;;3.15;;
51852;SDS011;37894;53.172;6.598;2024-03-17T05:40:59;8.90;;;3.45;;
51852;SDS011;37894;53.172;6.598;2024-03-17T05:43:26;9.15;;;4.40;;
51852;SDS011;37894;53.172;6.598;2024-03-17T05:45:58;9.30;;;3.60;;
51852;SDS011;37894;53.172;6.598;2024-03-17T05:48:26;11.00;;;4.18;;
51852;SDS011;37894;53.172;6.598;2024-03-17T05:50:52;13.65;;;4.18;;
51852;SDS011;37894;53.172;6.598;2024-03-17T05:53:18;12.77;;;4.20;;
51852;SDS011;37894;53.172;6.598;2024-03-17T05:55:50;11.88;;;4.00;;
51852;SDS011;37894;53.172;6.598;2024-03-17T05:58:16;9.05;;;4.22;;
51852;SDS011;37894;53.172;6.598;2024-03-17T06:00:42;11.20;;;4.35;;
51852;SDS011;37894;53.172;6.598;2024-03-17T06:03:09;13.15;;;5.03;;
51852;SDS011;37894;53.172;6.598;2024-03-17T06:05:36;11.93;;;4.30;;
51852;SDS011;37894;53.172;6.598;2024-03-17T06:08:03;10.55;;;4.30;;
51852;SDS011;37894;53.172;6.598;2024-03-17T06:10:30;7.85;;;4.45;;
51852;SDS011;37894;53.172;6.598;2024-03-17T06:12:57;11.77;;;4.97;;
51852;SDS011;37894;53.172;6.598;2024-03-17T06:15:23;17.23;;;5.18;;
51852;SDS011;37894;53.172;6.598;2024-03-17T06:17:50;13.68;;;5.10;;
51852;SDS011;37894;53.172;6.598;2024-03-17T06:20:23;16.88;;;5.78;;
51852;SDS011;37894;53.172;6.598;2024-03-17T06:22:55;12.43;;;5.38;;
51852;SDS011;37894;53.172;6.598;2024-03-17T06:25:22;10.90;;;5.20;;
51852;SDS011;37894;53.172;6.598;2024-03-17T06:27:51;18.65;;;5.93;;
51852;SDS011;37894;53.172;6.598;2024-03-17T06:30:17;9.23;;;5.07;;
51852;SDS011;37894;53.172;6.598;2024-03-17T06:32:43;18.17;;;5.82;;
51852;SDS011;37894;53.172;6.598;2024-03-17T06:35:11;14.27;;;5.63;;
51852;SDS011;37894;53.172;6.598;2024-03-17T06:37:40;10.68;;;4.78;;
51852;SDS011;37894;53.172;6.598;2024-03-17T06:40:06;12.77;;;6.13;;
51852;SDS011;37894;53.172;6.598;2024-03-17T06:42:37;12.93;;;5.55;;
51852;SDS011;37894;53.172;6.598;2024-03-17T06:45:03;13.15;;;5.75;;
51852;SDS011;37894;53.172;6.598;2024-03-17T06:47:29;12.90;;;5.55;;
51852;SDS011;37894;53.172;6.598;2024-03-17T06:49:55;14.55;;;5.65;;
51852;SDS011;37894;53.172;6.598;2024-03-17T06:52:20;11.88;;;5.38;;
51852;SDS011;37894;53.172;6.598;2024-03-17T06:54:47;15.90;;;5.78;;
51852;SDS011;37894;53.172;6.598;2024-03-17T06:57:16;11.88;;;5.80;;
51852;SDS011;37894;53.172;6.598;2024-03-17T06:59:42;12.45;;;5.32;;
51852;SDS011;37894;53.172;6.598;2024-03-17T07:02:07;12.85;;;5.05;;
51852;SDS011;37894;53.172;6.598;2024-03-17T07:04:37;15.38;;;5.20;;
51852;SDS011;37894;53.172;6.598;2024-03-17T07:07:03;17.83;;;5.53;;
51852;SDS011;37894;53.172;6.598;2024-03-17T07:09:29;11.25;;;4.35;;
51852;SDS011;37894;53.172;6.598;2024-03-17T07:11:54;11.13;;;4.13;;
51852;SDS011;37894;53.172;6.598;2024-03-17T07:14:20;13.02;;;4.80;;
51852;SDS011;37894;53.172;6.598;2024-03-17T07:16:46;11.40;;;4.40;;
51852;SDS011;37894;53.172;6.598;2024-03-17T07:19:11;15.25;;;5.32;;
51852;SDS011;37894;53.172;6.598;2024-03-17T07:21:37;14.80;;;4.55;;
51852;SDS011;37894;53.172;6.598;2024-03-17T07:24:02;11.00;;;4.15;;
51852;SDS011;37894;53.172;6.598;2024-03-17T07:26:30;11.23;;;4.25;;
51852;SDS011;37894;53.172;6.598;2024-03-17T07:28:56;10.73;;;4.30;;
51852;SDS011;37894;53.172;6.598;2024-03-17T07:31:22;10.30;;;4.53;;
51852;SDS011;37894;53.172;6.598;2024-03-17T07:33:47;10.82;;;3.67;;
51852;SDS011;37894;53.172;6.598;2024-03-17T07:36:14;7.22;;;4.35;;
51852;SDS011;37894;53.172;6.598;2024-03-17T07:38:40;12.60;;;3.88;;
51852;SDS011;37894;53.172;6.598;2024-03-17T07:41:06;6.60;;;3.10;;
51852;SDS011;37894;53.172;6.598;2024-03-17T07:43:36;11.45;;;3.83;;
51852;SDS011;37894;53.172;6.598;2024-03-17T07:46:10;12.75;;;3.80;;
51852;SDS011;37894;53.172;6.598;2024-03-17T07:48:39;11.23;;;3.60;;
51852;SDS011;37894;53.172;6.598;2024-03-17T07:51:07;11.13;;;3.38;;
51852;SDS011;37894;53.172;6.598;2024-03-17T07:53:41;8.90;;;3.08;;
51852;SDS011;37894;53.172;6.598;2024-03-17T07:56:10;9.65;;;3.60;;
51852;SDS011;37894;53.172;6.598;2024-03-17T07:58:38;9.63;;;2.90;;
51852;SDS011;37894;53.172;6.598;2024-03-17T08:01:11;9.23;;;3.50;;
51852;SDS011;37894;53.172;6.598;2024-03-17T08:03:42;9.60;;;3.60;;
51852;SDS011;37894;53.172;6.598;2024-03-17T08:06:10;11.40;;;3.72;;
51852;SDS011;37894;53.172;6.598;2024-03-17T08:08:37;10.02;;;3.30;;
51852;SDS011;37894;53.172;6.598;2024-03-17T08:11:03;13.05;;;4.63;;
51852;SDS011;37894;53.172;6.598;2024-03-17T08:13:32;12.15;;;3.60;;
51852;SDS011;37894;53.172;6.598;2024-03-17T08:16:03;9.32;;;2.85;;
51852;SDS011;37894;53.172;6.598;2024-03-17T08:18:36;11.35;;;3.83;;
51852;SDS011;37894;53.172;6.598;2024-03-17T08:21:02;10.90;;;3.50;;
51852;SDS011;37894;53.172;6.598;2024-03-17T08:23:29;12.93;;;2.83;;
51852;SDS011;37894;53.172;6.598;2024-03-17T08:25:56;10.43;;;2.83;;
51852;SDS011;37894;53.172;6.598;2024-03-17T08:28:24;8.52;;;2.97;;
51852;SDS011;37894;53.172;6.598;2024-03-17T08:30:53;15.43;;;3.45;;
51852;SDS011;37894;53.172;6.598;2024-03-17T08:33:20;10.13;;;2.72;;
51852;SDS011;37894;53.172;6.598;2024-03-17T08:35:54;9.52;;;3.55;;
51852;SDS011;37894;53.172;6.598;2024-03-17T08:38:20;9.55;;;3.03;;
51852;SDS011;37894;53.172;6.598;2024-03-17T08:40:48;7.65;;;3.25;;
51852;SDS011;37894;53.172;6.598;2024-03-17T08:43:14;9.35;;;3.13;;
51852;SDS011;37894;53.172;6.598;2024-03-17T08:45:40;8.88;;;2.75;;
51852;SDS011;37894;53.172;6.598;2024-03-17T08:48:07;13.57;;;3.30;;
51852;SDS011;37894;53.172;6.598;2024-03-17T08:50:32;9.75;;;2.67;;
51852;SDS011;37894;53.172;6.598;2024-03-17T08:52:59;7.75;;;2.78;;
51852;SDS011;37894;53.172;6.598;2024-03-17T08:55:25;7.85;;;2.95;;
51852;SDS011;37894;53.172;6.598;2024-03-17T08:57:50;10.45;;;2.88;;
51852;SDS011;37894;53.172;6.598;2024-03-17T09:00:16;9.80;;;2.80;;
51852;SDS011;37894;53.172;6.598;2024-03-17T09:02:42;11.52;;;3.10;;
51852;SDS011;37894;53.172;6.598;2024-03-17T09:05:08;9.20;;;3.20;;
51852;SDS011;37894;53.172;6.598;2024-03-17T09:07:34;8.98;;;3.08;;
51852;SDS011;37894;53.172;6.598;2024-03-17T09:10:00;10.40;;;3.25;;
51852;SDS011;37894;53.172;6.598;2024-03-17T09:12:26;8.45;;;3.38;;
51852;SDS011;37894;53.172;6.598;2024-03-17T09:14:52;12.75;;;3.55;;
51852;SDS011;37894;53.172;6.598;2024-03-17T09:17:18;8.65;;;3.28;;
51852;SDS011;37894;53.172;6.598;2024-03-17T09:19:47;12.55;;;4.15;;
51852;SDS011;37894;53.172;6.598;2024-03-17T09:22:13;11.07;;;4.35;;
51852;SDS011;37894;53.172;6.598;2024-03-17T09:24:39;11.23;;;3.60;;
51852;SDS011;37894;53.172;6.598;2024-03-17T09:27:05;12.80;;;4.53;;
51852;SDS011;37894;53.172;6.598;2024-03-17T09:29:31;10.65;;;4.18;;
51852;SDS011;37894;53.172;6.598;2024-03-17T09:31:58;8.00;;;3.53;;
51852;SDS011;37894;53.172;6.598;2024-03-17T09:34:24;12.48;;;4.03;;
51852;SDS011;37894;53.172;6.598;2024-03-17T09:36:49;9.65;;;4.70;;
51852;SDS011;37894;53.172;6.598;2024-03-17T09:39:15;12.48;;;4.20;;
51852;SDS011;37894;53.172;6.598;2024-03-17T09:41:41;10.82;;;3.67;;
51852;SDS011;37894;53.172;6.598;2024-03-17T09:44:09;10.77;;;4.72;;
51852;SDS011;37894;53.172;6.598;2024-03-17T09:46:38;9.65;;;3.75;;
51852;SDS011;37894;53.172;6.598;2024-03-17T09:49:04;7.80;;;3.70;;
51852;SDS011;37894;53.172;6.598;2024-03-17T09:51:39;10.30;;;5.32;;
51852;SDS011;37894;53.172;6.598;2024-03-17T09:54:07;9.10;;;3.70;;
51852;SDS011;37894;53.172;6.598;2024-03-17T09:56:42;8.68;;;3.72;;
51852;SDS011;37894;53.172;6.598;2024-03-17T09:59:08;7.20;;;4.30;;
51852;SDS011;37894;53.172;6.598;2024-03-17T10:01:34;9.20;;;4.47;;
51852;SDS011;37894;53.172;6.598;2024-03-17T10:03:59;8.38;;;4.30;;
51852;SDS011;37894;53.172;6.598;2024-03-17T10:06:35;11.82;;;4.63;;
51852;SDS011;37894;53.172;6.598;2024-03-17T10:09:13;9.63;;;4.88;;
51852;SDS011;37894;53.172;6.598;2024-03-17T10:11:46;11.38;;;4.53;;
51852;SDS011;37894;53.172;6.598;2024-03-17T10:14:12;10.88;;;4.75;;
51852;SDS011;37894;53.172;6.598;2024-03-17T10:16:42;8.57;;;4.28;;
51852;SDS011;37894;53.172;6.598;2024-03-17T10:19:12;10.82;;;4.97;;
51852;SDS011;37894;53.172;6.598;2024-03-17T10:21:47;12.82;;;4.63;;
51852;SDS011;37894;53.172;6.598;2024-03-17T10:24:14;11.43;;;4.78;;
51852;SDS011;37894;53.172;6.598;2024-03-17T10:31:59;14.68;;;5.32;;
51852;SDS011;37894;53.172;6.598;2024-03-17T10:34:29;7.32;;;4.22;;
51852;SDS011;37894;53.172;6.598;2024-03-17T10:37:08;8.05;;;4.57;;
51852;SDS011;37894;53.172;6.598;2024-03-17T10:39:43;10.65;;;5.80;;
51852;SDS011;37894;53.172;6.598;2024-03-17T10:42:10;13.43;;;5.65;;
51852;SDS011;37894;53.172;6.598;2024-03-17T10:44:45;9.55;;;5.68;;
51852;SDS011;37894;53.172;6.598;2024-03-17T10:47:21;14.55;;;6.22;;
51852;SDS011;37894;53.172;6.598;2024-03-17T10:49:49;12.98;;;6.68;;
51852;SDS011;37894;53.172;6.598;2024-03-17T10:52:17;11.90;;;6.03;;
51852;SDS011;37894;53.172;6.598;2024-03-17T10:54:47;13.45;;;5.82;;
51852;SDS011;37894;53.172;6.598;2024-03-17T10:59:51;12.45;;;5.68;;
51852;SDS011;37894;53.172;6.598;2024-03-17T11:02:22;13.60;;;5.72;;
51852;SDS011;37894;53.172;6.598;2024-03-17T11:04:58;10.45;;;5.65;;
51852;SDS011;37894;53.172;6.598;2024-03-17T11:07:26;12.18;;;5.65;;
51852;SDS011;37894;53.172;6.598;2024-03-17T11:09:53;12.52;;;6.18;;
51852;SDS011;37894;53.172;6.598;2024-03-17T11:20:43;15.25;;;7.07;;
51852;SDS011;37894;53.172;6.598;2024-03-17T11:23:30;13.20;;;6.75;;
51852;SDS011;37894;53.172;6.598;2024-03-17T11:25:56;15.18;;;6.28;;
51852;SDS011;37894;53.172;6.598;2024-03-17T11:33:57;11.18;;;6.47;;
51852;SDS011;37894;53.172;6.598;2024-03-17T11:41:45;11.98;;;6.18;;
51852;SDS011;37894;53.172;6.598;2024-03-17T11:44:33;14.93;;;7.07;;
51852;SDS011;37894;53.172;6.598;2024-03-17T11:46:59;9.40;;;6.38;;
51852;SDS011;37894;53.172;6.598;2024-03-17T11:49:36;13.18;;;7.57;;
51852;SDS011;37894;53.172;6.598;2024-03-17T11:52:04;14.43;;;6.72;;
51852;SDS011;37894;53.172;6.598;2024-03-17T11:54:34;14.20;;;8.32;;
51852;SDS011;37894;53.172;6.598;2024-03-17T11:57:02;13.80;;;7.63;;
51852;SDS011;37894;53.172;6.598;2024-03-17T11:59:29;14.07;;;7.47;;
51852;SDS011;37894;53.172;6.598;2024-03-17T12:01:55;11.15;;;7.10;;
51852;SDS011;37894;53.172;6.598;2024-03-17T12:04:22;17.52;;;8.02;;
51852;SDS011;37894;53.172;6.598;2024-03-17T12:06:54;11.80;;;6.82;;
51852;SDS011;37894;53.172;6.598;2024-03-17T12:09:22;15.52;;;8.07;;
51852;SDS011;37894;53.172;6.598;2024-03-17T12:11:59;11.57;;;7.15;;
51852;SDS011;37894;53.172;6.598;2024-03-17T12:14:26;12.70;;;8.10;;
51852;SDS011;37894;53.172;6.598;2024-03-17T12:16:52;13.77;;;8.18;;
51852;SDS011;37894;53.172;6.598;2024-03-17T12:19:19;14.10;;;7.55;;
51852;SDS011;37894;53.172;6.598;2024-03-17T12:21:46;12.40;;;7.47;;
51852;SDS011;37894;53.172;6.598;2024-03-17T12:24:20;10.60;;;7.00;;
51852;SDS011;37894;53.172;6.598;2024-03-17T12:26:48;16.20;;;8.57;;
51852;SDS011;37894;53.172;6.598;2024-03-17T12:31:57;13.38;;;7.85;;
51852;SDS011;37894;53.172;6.598;2024-03-17T12:34:28;12.60;;;8.25;;
51852;SDS011;37894;53.172;6.598;2024-03-17T12:36:56;12.77;;;8.15;;
51852;SDS011;37894;53.172;6.598;2024-03-17T12:39:24;12.60;;;8.32;;
51852;SDS011;37894;53.172;6.598;2024-03-17T12:42:03;12.13;;;8.07;;
51852;SDS011;37894;53.172;6.598;2024-03-17T12:44:46;12.25;;;8.18;;
51852;SDS011;37894;53.172;6.598;2024-03-17T12:49:49;14.98;;;9.20;;
51852;SDS011;37894;53.172;6.598;2024-03-17T12:52:20;12.27;;;8.80;;
51852;SDS011;37894;53.172;6.598;2024-03-17T12:57:48;14.57;;;9.45;;
51852;SDS011;37894;53.172;6.598;2024-03-17T13:00:34;14.73;;;8.82;;
51852;SDS011;37894;53.172;6.598;2024-03-17T13:03:04;14.07;;;8.70;;
51852;SDS011;37894;53.172;6.598;2024-03-17T13:05:31;15.18;;;9.27;;
51852;SDS011;37894;53.172;6.598;2024-03-17T13:07:57;14.48;;;9.02;;
51852;SDS011;37894;53.172;6.598;2024-03-17T13:10:27;18.17;;;10.13;;
51852;SDS011;37894;53.172;6.598;2024-03-17T13:15:28;14.65;;;8.52;;
51852;SDS011;37894;53.172;6.598;2024-03-17T13:17:58;14.73;;;8.73;;
51852;SDS011;37894;53.172;6.598;2024-03-17T13:20:24;13.57;;;8.60;;
51852;SDS011;37894;53.172;6.598;2024-03-17T13:22:50;14.27;;;8.48;;
51852;SDS011;37894;53.172;6.598;2024-03-17T13:25:16;15.02;;;8.20;;
51852;SDS011;37894;53.172;6.598;2024-03-17T13:27:46;14.10;;;8.70;;
51852;SDS011;37894;53.172;6.598;2024-03-17T13:30:13;13.35;;;8.18;;
51852;SDS011;37894;53.172;6.598;2024-03-17T13:32:40;12.88;;;8.38;;
51852;SDS011;37894;53.172;6.598;2024-03-17T13:35:19;14.48;;;8.20;;
51852;SDS011;37894;53.172;6.598;2024-03-17T13:37:45;18.77;;;9.38;;
51852;SDS011;37894;53.172;6.598;2024-03-17T13:40:12;14.13;;;8.43;;
51852;SDS011;37894;53.172;6.598;2024-03-17T13:42:42;13.88;;;7.70;;
51852;SDS011;37894;53.172;6.598;2024-03-17T13:45:10;13.10;;;8.30;;
51852;SDS011;37894;53.172;6.598;2024-03-17T13:47:39;16.33;;;9.02;;
51852;SDS011;37894;53.172;6.598;2024-03-17T13:50:06;13.50;;;7.88;;
51852;SDS011;37894;53.172;6.598;2024-03-17T13:52:36;13.20;;;8.02;;
51852;SDS011;37894;53.172;6.598;2024-03-17T13:55:03;11.20;;;7.32;;
51852;SDS011;37894;53.172;6.598;2024-03-17T13:57:32;12.82;;;7.35;;
51852;SDS011;37894;53.172;6.598;2024-03-17T13:59:58;11.88;;;7.28;;
51852;SDS011;37894;53.172;6.598;2024-03-17T14:02:24;11.25;;;6.65;;
51852;SDS011;37894;53.172;6.598;2024-03-17T14:04:49;10.15;;;6.25;;
51852;SDS011;37894;53.172;6.598;2024-03-17T14:07:15;10.95;;;6.88;;
51852;SDS011;37894;53.172;6.598;2024-03-17T14:09:41;10.38;;;6.95;;
51852;SDS011;37894;53.172;6.598;2024-03-17T14:12:07;12.05;;;7.32;;
51852;SDS011;37894;53.172;6.598;2024-03-17T14:14:33;11.65;;;7.18;;
51852;SDS011;37894;53.172;6.598;2024-03-17T14:16:59;11.48;;;7.07;;
51852;SDS011;37894;53.172;6.598;2024-03-17T14:19:25;13.48;;;8.00;;
51852;SDS011;37894;53.172;6.598;2024-03-17T14:21:51;12.07;;;8.18;;
51852;SDS011;37894;53.172;6.598;2024-03-17T14:24:17;13.75;;;8.75;;
51852;SDS011;37894;53.172;6.598;2024-03-17T14:26:43;14.82;;;8.75;;
51852;SDS011;37894;53.172;6.598;2024-03-17T14:29:09;16.27;;;8.68;;
51852;SDS011;37894;53.172;6.598;2024-03-17T14:31:34;12.50;;;8.00;;
51852;SDS011;37894;53.172;6.598;2024-03-17T14:34:03;12.45;;;7.70;;
51852;SDS011;37894;53.172;6.598;2024-03-17T14:36:32;12.32;;;7.60;;
51852;SDS011;37894;53.172;6.598;2024-03-17T14:39:01;12.65;;;7.78;;
51852;SDS011;37894;53.172;6.598;2024-03-17T14:41:28;13.82;;;7.55;;
51852;SDS011;37894;53.172;6.598;2024-03-17T14:43:54;11.15;;;7.70;;
51852;SDS011;37894;53.172;6.598;2024-03-17T14:46:20;13.48;;;7.47;;
51852;SDS011;37894;53.172;6.598;2024-03-17T14:48:46;16.30;;;7.53;;
51852;SDS011;37894;53.172;6.598;2024-03-17T14:51:12;12.27;;;7.70;;
51852;SDS011;37894;53.172;6.598;2024-03-17T14:53:38;13.25;;;8.40;;
51852;SDS011;37894;53.172;6.598;2024-03-17T14:56:13;12.13;;;6.85;;
51852;SDS011;37894;53.172;6.598;2024-03-17T14:58:40;11.50;;;7.78;;
51852;SDS011;37894;53.172;6.598;2024-03-17T15:01:06;11.50;;;7.32;;
51852;SDS011;37894;53.172;6.598;2024-03-17T15:03:34;11.75;;;7.43;;
51852;SDS011;37894;53.172;6.598;2024-03-17T15:06:00;14.35;;;7.50;;
51852;SDS011;37894;53.172;6.598;2024-03-17T15:08:28;18.42;;;11.95;;
51852;SDS011;37894;53.172;6.598;2024-03-17T15:10:55;24.08;;;14.25;;
51852;SDS011;37894;53.172;6.598;2024-03-17T15:13:21;15.75;;;10.43;;
51852;SDS011;37894;53.172;6.598;2024-03-17T15:15:48;15.18;;;9.07;;
51852;SDS011;37894;53.172;6.598;2024-03-17T15:18:15;12.10;;;7.72;;